×

Warning

JFile: :read: Unable to open file: http://aviationweather.gov/adds/metars/?station_ids=TVSA&std_trans=standard&chk_metars=on&hoursStr=most+recent+only&submitmet=Submit

Latest Weather Forecast - Tuesday 24th March 2020 (6 pm)

Forecast Period: 

6:00 pm 24th March 2020 to 6:00 am 25th March 2020

Synopsis: The Atlantic high pressure system will be the dominant feature.
Forecast:

Fair to partly cloudy and breezy at times with a few brief isolated showers

Weather 
Advisory/Warning:

 None

Winds:

Generally from the East at 20 to 35 km/h.

Sea Conditions:

Slight to moderate in open water with swells from 1.0 m to 2.0 m

Marine  Advisory/Warning:

 None

Upcoming Tides:

High:7:05 pm    -7:36 am

Low:2:15 am     -1:26 pm

Aviation WX

[Source: ADDS]
METAR
WX-Data not avlb.
(due to wrong input of icao-codes or 'allow_url_fopen' is OFF [1] and cURL not enabled [1] on this server!)
TAF
TVSA 301100Z 3012/3112 06009KT 9999 SCT018 PROB30 TEMPO 3100/3109 SHRA BKN015 SCT036 =
SR / SS: 10:01 / 22:16 UTC (Sunrise Sunset 2020-03-30)